Time;durP1;ratioP1;P1;durP2;ratioP2;P2;SDS_P1;SDS_P2;PMS_P1;PMS_P2;Temp;Humidity;BMP_temperature;BMP_pressure;BME280_temperature;BME280_humidity;BME280_pressure;Samples;Min_cycle;Max_cycle;Signal;HPM_P1;HPM_P2
2021/08/24 00:02:18;;;;;;;7.32;4.10;;;16.10;88.70;;;;;;5073965;28;20060;-86
2021/08/24 00:04:44;;;;;;;5.72;3.92;;;16.00;88.60;;;;;;5073968;28;20107;-86
2021/08/24 00:07:09;;;;;;;5.60;4.10;;;16.00;88.60;;;;;;5074003;28;20135;-86
2021/08/24 00:09:36;;;;;;;7.13;4.07;;;16.00;88.70;;;;;;5039448;28;20024;-86
2021/08/24 00:12:03;;;;;;;5.25;4.22;;;16.00;88.70;;;;;;5056064;28;20028;-86
2021/08/24 00:14:31;;;;;;;4.82;2.92;;;15.90;88.70;;;;;;5073595;28;20025;-86
2021/08/24 00:16:57;;;;;;;5.22;3.72;;;16.00;88.90;;;;;;5039486;28;20029;-86
2021/08/24 00:19:23;;;;;;;5.32;3.80;;;16.00;89.00;;;;;;5073812;28;20079;-86
2021/08/24 00:21:49;;;;;;;5.28;3.45;;;15.90;88.80;;;;;;5073779;28;20028;-86
2021/08/24 00:24:16;;;;;;;6.38;3.70;;;15.90;88.60;;;;;;5073801;28;20108;-86
2021/08/24 00:26:41;;;;;;;5.70;4.03;;;15.90;88.60;;;;;;5073552;28;20031;-87
2021/08/24 00:29:07;;;;;;;5.75;3.75;;;15.90;88.70;;;;;;5039084;28;20460;-86
2021/08/24 00:31:33;;;;;;;5.25;3.30;;;15.90;88.70;;;;;;5055364;28;20086;-86
2021/08/24 00:33:58;;;;;;;3.97;3.22;;;15.80;88.80;;;;;;5073446;28;20024;-86
2021/08/24 00:36:24;;;;;;;5.65;3.75;;;15.90;88.80;;;;;;5038773;28;20143;-86
2021/08/24 00:38:50;;;;;;;5.10;3.58;;;15.80;88.80;;;;;;5073366;28;20021;-87
2021/08/24 00:41:17;;;;;;;4.47;3.70;;;15.80;88.90;;;;;;5073442;28;20028;-85
2021/08/24 00:43:44;;;;;;;9.38;3.70;;;15.70;88.90;;;;;;5065753;28;20470;-86
2021/08/24 00:46:33;;;;;;;7.50;3.85;;;15.70;89.00;;;;;;5040856;28;20024;-86
2021/08/24 00:49:12;;;;;;;4.03;3.53;;;15.70;89.10;;;;;;5062423;28;20041;-86
2021/08/24 00:51:40;;;;;;;5.60;3.33;;;15.60;89.40;;;;;;5073428;28;20025;-86
2021/08/24 00:54:09;;;;;;;5.07;3.92;;;15.60;89.20;;;;;;5072726;28;20071;-87
2021/08/24 00:56:35;;;;;;;6.95;3.55;;;15.60;89.20;;;;;;5073016;28;20017;-86
2021/08/24 00:59:03;;;;;;;7.32;4.00;;;15.60;89.20;;;;;;5038766;28;20031;-86
2021/08/24 01:01:29;;;;;;;4.57;3.47;;;15.50;89.20;;;;;;5073358;28;20029;-85
2021/08/24 01:03:55;;;;;;;6.20;3.28;;;15.50;89.30;;;;;;5055198;28;20035;-85
2021/08/24 01:07:05;;;;;;;6.78;4.00;;;15.50;89.40;;;;;;5073107;28;20024;-86
2021/08/24 01:09:42;;;;;;;10.70;3.50;;;15.50;89.50;;;;;;4991615;28;20557;-86
2021/08/24 01:12:27;;;;;;;5.88;3.55;;;15.50;89.60;;;;;;5062025;28;20051;-85
2021/08/24 01:15:20;;;;;;;3.97;3.33;;;15.40;89.60;;;;;;5074056;28;20461;-86
2021/08/24 01:17:54;;;;;;;4.68;3.38;;;15.40;89.70;;;;;;5089044;28;20035;-86
2021/08/24 01:20:49;;;;;;;6.50;3.47;;;15.40;89.70;;;;;;5054913;28;20111;-85
2021/08/24 01:23:29;;;;;;;6.47;3.00;;;15.30;89.70;;;;;;5001320;28;20038;-86
2021/08/24 01:26:06;;;;;;;7.53;3.83;;;15.30;89.90;;;;;;5072804;28;20017;-86
2021/08/24 01:28:57;;;;;;;7.68;3.97;;;15.30;90.00;;;;;;5071707;28;20025;-86
2021/08/24 01:31:47;;;;;;;6.78;3.50;;;15.30;90.00;;;;;;5053831;28;20025;-86
2021/08/24 01:34:21;;;;;;;6.18;3.42;;;15.20;90.00;;;;;;5058684;28;20378;-86
2021/08/24 01:36:49;;;;;;;8.95;2.92;;;15.30;90.00;;;;;;5053352;28;20524;-86
2021/08/24 01:39:27;;;;;;;6.30;3.80;;;15.20;90.00;;;;;;5071265;28;20032;-86
2021/08/24 01:42:18;;;;;;;4.82;3.47;;;15.20;90.00;;;;;;5071891;28;20021;-86
2021/08/24 01:45:01;;;;;;;4.97;3.67;;;15.20;90.00;;;;;;5072229;28;20031;-85
2021/08/24 01:47:49;;;;;;;6.57;3.55;;;15.20;90.00;;;;;;5069557;28;20439;-86
2021/08/24 01:50:21;;;;;;;6.90;3.47;;;15.20;90.00;;;;;;5073022;28;20064;-86
2021/08/24 01:53:12;;;;;;;5.65;3.58;;;15.10;90.00;;;;;;5071354;28;20095;-86
2021/08/24 01:55:44;;;;;;;9.35;3.22;;;15.10;90.10;;;;;;5061708;28;20064;-86
2021/08/24 01:58:28;;;;;;;5.82;3.72;;;15.10;90.10;;;;;;5071406;28;20036;-85
2021/08/24 02:00:56;;;;;;;5.10;3.35;;;15.10;90.10;;;;;;5054387;28;20052;-86
2021/08/24 02:03:31;;;;;;;5.28;3.10;;;15.10;90.10;;;;;;5060108;28;20033;-86
2021/08/24 02:06:02;;;;;;;5.38;3.80;;;15.10;90.40;;;;;;5073442;28;20107;-85
2021/08/24 02:08:34;;;;;;;6.10;3.40;;;15.10;90.10;;;;;;5058057;28;20128;-86
2021/08/24 02:11:02;;;;;;;4.13;3.50;;;15.00;90.10;;;;;;5058118;28;20032;-86
2021/08/24 02:13:33;;;;;;;6.77;3.93;;;15.00;90.10;;;;;;5076260;28;20073;-86
2021/08/24 02:16:02;;;;;;;5.38;3.03;;;15.00;90.20;;;;;;5078347;28;20604;-86
2021/08/24 02:18:34;;;;;;;6.10;3.63;;;15.00;90.20;;;;;;5096222;28;20081;-86
2021/08/24 02:21:13;;;;;;;4.13;3.47;;;14.90;90.20;;;;;;5096335;28;20027;-85
2021/08/24 02:23:39;;;;;;;;;;;14.90;90.30;;;;;;5096730;28;20028;-86
2021/08/24 02:26:09;;;;;;;5.53;3.13;;;14.80;90.20;;;;;;5096203;28;20045;-86
2021/08/24 02:28:42;;;;;;;6.45;3.42;;;14.80;90.40;;;;;;5068761;28;20109;-86
2021/08/24 02:31:16;;;;;;;6.32;3.90;;;14.80;90.40;;;;;;5057786;28;20036;-86
2021/08/24 02:33:47;;;;;;;5.88;3.22;;;14.80;90.40;;;;;;5057664;28;20115;-85
2021/08/24 02:36:14;;;;;;;5.20;3.22;;;14.80;90.40;;;;;;5057729;28;20563;-86
2021/08/24 02:38:47;;;;;;;6.07;3.25;;;14.80;90.40;;;;;;5075701;28;20029;-86
2021/08/24 02:41:18;;;;;;;6.03;3.97;;;14.80;90.50;;;;;;5057685;28;20393;-86
2021/08/24 02:44:06;;;;;;;7.63;3.88;;;14.70;90.50;;;;;;5075647;28;20028;-86
2021/08/24 02:46:38;;;;;;;4.32;3.40;;;14.70;90.50;;;;;;5075457;28;20401;-85
2021/08/24 02:49:08;;;;;;;9.13;3.70;;;14.70;90.50;;;;;;5057452;28;20031;-87
2021/08/24 02:51:34;;;;;;;6.38;3.90;;;14.70;90.60;;;;;;5075343;28;20060;-86
2021/08/24 02:54:06;;;;;;;6.68;3.55;;;14.60;90.60;;;;;;5075483;28;20021;-86
2021/08/24 02:56:31;;;;;;;9.60;3.90;;;14.60;90.70;;;;;;5075170;28;20031;-85
2021/08/24 02:58:57;;;;;;;6.07;3.58;;;14.60;90.70;;;;;;5057232;28;20017;-85
2021/08/24 03:01:22;;;;;;;5.10;4.03;;;14.60;90.70;;;;;;5057286;28;20090;-86
2021/08/24 03:03:48;;;;;;;7.93;3.50;;;14.60;90.70;;;;;;5075212;28;20032;-86
2021/08/24 03:06:14;;;;;;;6.53;3.83;;;14.60;90.80;;;;;;5074768;28;20402;-86
2021/08/24 03:08:40;;;;;;;5.32;3.42;;;14.50;90.80;;;;;;5074733;28;20040;-85
2021/08/24 03:11:07;;;;;;;7.18;3.70;;;14.50;90.80;;;;;;5056844;28;20029;-85
2021/08/24 03:13:47;;;;;;;7.45;4.10;;;14.50;90.90;;;;;;5040174;28;20028;-85
2021/08/24 03:16:21;;;;;;;6.75;3.90;;;14.40;90.90;;;;;;5074763;28;20025;-86
2021/08/24 03:18:54;;;;;;;9.30;3.85;;;14.40;91.00;;;;;;5073629;28;20025;-86
2021/08/24 03:21:24;;;;;;;6.47;4.05;;;14.40;91.00;;;;;;5074416;28;20434;-86
2021/08/24 03:23:51;;;;;;;6.20;4.35;;;14.40;91.00;;;;;;5056025;28;20028;-86
2021/08/24 03:26:28;;;;;;;7.35;3.95;;;14.40;91.10;;;;;;5056351;28;20508;-85
2021/08/24 03:28:55;;;;;;;6.65;3.70;;;14.40;91.40;;;;;;5074120;28;20048;-86
2021/08/24 03:31:21;;;;;;;6.25;4.43;;;14.40;91.10;;;;;;5065760;28;20051;-84
2021/08/24 03:33:49;;;;;;;5.93;4.28;;;14.40;91.10;;;;;;5081889;28;20066;-86
2021/08/24 03:36:14;;;;;;;6.45;4.65;;;14.30;91.20;;;;;;5072922;28;20037;-86
2021/08/24 03:38:41;;;;;;;6.80;4.00;;;14.30;91.30;;;;;;5054424;28;20036;-86
2021/08/24 03:41:09;;;;;;;7.35;4.43;;;14.30;91.30;;;;;;5072672;28;20029;-86
2021/08/24 03:43:36;;;;;;;10.45;4.50;;;14.30;91.30;;;;;;5054855;28;20024;-85
2021/08/24 03:46:02;;;;;;;6.95;4.38;;;14.20;91.30;;;;;;5073366;28;20037;-86
2021/08/24 03:48:28;;;;;;;7.88;4.43;;;14.20;91.40;;;;;;5071944;28;20033;-86
2021/08/24 03:50:53;;;;;;;5.25;4.68;;;14.20;91.40;;;;;;5072209;28;20023;-85
2021/08/24 03:53:19;;;;;;;10.10;4.43;;;14.20;91.40;;;;;;5055577;28;20035;-85
2021/08/24 03:55:45;;;;;;;6.63;4.68;;;14.20;91.40;;;;;;5074042;28;20385;-86
2021/08/24 03:58:12;;;;;;;6.88;4.45;;;14.20;91.40;;;;;;5074227;28;20035;-86
2021/08/24 04:00:41;;;;;;;5.97;3.83;;;14.10;91.40;;;;;;5073743;28;20020;-85
2021/08/24 04:03:06;;;;;;;7.10;4.95;;;14.10;91.50;;;;;;5056225;28;20027;-85
2021/08/24 04:05:32;;;;;;;8.20;5.07;;;14.10;91.50;;;;;;5049743;28;20032;-85
2021/08/24 04:07:57;;;;;;;8.50;5.20;;;14.10;91.50;;;;;;5056225;28;20028;-86
2021/08/24 04:10:23;;;;;;;13.15;5.35;;;14.00;91.50;;;;;;5056000;28;20036;-86
2021/08/24 04:12:49;;;;;;;11.80;5.20;;;14.00;91.60;;;;;;5073963;28;20082;-85
2021/08/24 04:15:14;;;;;;;7.85;5.13;;;14.00;91.60;;;;;;5073579;28;20032;-85
2021/08/24 04:17:40;;;;;;;7.70;5.50;;;14.00;91.50;;;;;;5055994;28;20029;-85
2021/08/24 04:20:12;;;;;;;7.00;4.78;;;14.00;91.50;;;;;;5067105;28;20020;-86
2021/08/24 04:22:45;;;;;;;7.97;4.80;;;14.00;91.60;;;;;;5044749;28;20394;-85
2021/08/24 04:25:11;;;;;;;7.03;5.10;;;14.00;91.60;;;;;;5072958;28;20029;-85
2021/08/24 04:27:37;;;;;;;8.30;5.22;;;13.90;91.60;;;;;;5088841;28;20020;-86
2021/08/24 04:30:03;;;;;;;9.05;5.07;;;14.00;91.60;;;;;;5062224;28;20039;-85
2021/08/24 04:32:30;;;;;;;8.68;5.32;;;13.90;91.60;;;;;;5040602;28;20036;-86
2021/08/24 04:34:57;;;;;;;7.72;4.80;;;13.90;91.90;;;;;;5075408;28;20036;-85
2021/08/24 04:37:23;;;;;;;8.82;5.38;;;13.90;91.70;;;;;;5059154;28;20040;-86
2021/08/24 04:39:49;;;;;;;7.85;5.20;;;14.00;91.70;;;;;;5073618;28;20024;-86
2021/08/24 04:42:14;;;;;;;6.57;5.05;;;14.00;91.70;;;;;;5073004;28;20024;-85
2021/08/24 04:44:40;;;;;;;8.27;5.50;;;13.90;91.60;;;;;;5072056;28;20447;-85
2021/08/24 04:47:06;;;;;;;8.27;5.13;;;13.90;91.70;;;;;;5071943;28;20378;-86
2021/08/24 04:49:32;;;;;;;10.32;5.93;;;13.90;91.70;;;;;;5038042;28;20107;-86
2021/08/24 04:51:58;;;;;;;10.40;5.47;;;13.90;91.80;;;;;;5053466;28;20045;-86
2021/08/24 04:54:23;;;;;;;10.82;6.22;;;13.90;91.70;;;;;;5075044;28;21957;-86
2021/08/24 04:56:49;;;;;;;9.20;4.85;;;13.90;91.70;;;;;;5060835;28;20025;-86
2021/08/24 04:59:14;;;;;;;11.00;5.68;;;13.90;91.70;;;;;;5073095;28;20470;-86
2021/08/24 05:01:40;;;;;;;10.43;4.72;;;13.90;91.80;;;;;;5073144;28;20100;-86
2021/08/24 05:04:06;;;;;;;6.00;4.35;;;13.90;91.70;;;;;;5073393;28;20028;-85
2021/08/24 05:06:32;;;;;;;9.90;5.18;;;13.90;91.70;;;;;;5055158;28;20024;-85
2021/08/24 05:08:58;;;;;;;6.65;5.07;;;13.90;91.80;;;;;;5072846;28;20094;-86
2021/08/24 05:11:24;;;;;;;7.07;5.03;;;13.90;91.70;;;;;;5073173;28;20490;-86
2021/08/24 05:13:50;;;;;;;8.43;5.45;;;14.00;91.70;;;;;;5055060;28;20036;-86
2021/08/24 05:16:16;;;;;;;8.05;5.07;;;14.00;91.70;;;;;;5041415;28;20029;-86
2021/08/24 05:18:41;;;;;;;8.75;5.00;;;14.00;91.60;;;;;;5041890;28;20029;-86
2021/08/24 05:21:13;;;;;;;7.18;4.97;;;14.00;91.70;;;;;;5073006;28;20470;-86
2021/08/24 05:23:39;;;;;;;10.57;5.28;;;14.00;91.70;;;;;;5073068;28;20020;-86
2021/08/24 05:26:07;;;;;;;7.05;5.00;;;14.10;91.60;;;;;;5072848;28;20428;-86
2021/08/24 05:28:33;;;;;;;8.15;5.43;;;14.10;91.70;;;;;;5072819;28;20048;-84
2021/08/24 05:30:58;;;;;;;6.75;4.78;;;14.10;91.60;;;;;;5073035;28;20067;-86
2021/08/24 05:33:24;;;;;;;10.85;5.53;;;14.10;91.60;;;;;;5055044;28;20029;-87
2021/08/24 05:35:50;;;;;;;8.43;5.47;;;14.10;91.60;;;;;;5072492;28;20506;-86
2021/08/24 05:38:15;;;;;;;10.27;5.30;;;14.10;91.60;;;;;;5055106;28;20108;-87
2021/08/24 05:40:41;;;;;;;9.63;5.35;;;14.20;91.60;;;;;;5073268;28;20028;-86
2021/08/24 05:43:07;;;;;;;8.40;5.18;;;14.30;91.70;;;;;;5076702;28;20033;-86
2021/08/24 05:45:32;;;;;;;7.60;5.25;;;14.20;91.60;;;;;;5076656;28;20043;-85
2021/08/24 05:47:58;;;;;;;9.00;5.63;;;14.30;91.90;;;;;;5041871;28;20094;-86
2021/08/24 05:50:26;;;;;;;8.25;5.30;;;14.40;91.60;;;;;;5058513;28;20127;-86
2021/08/24 05:52:52;;;;;;;6.95;5.43;;;14.40;91.50;;;;;;5076249;28;20452;-85
2021/08/24 05:55:18;;;;;;;11.55;5.50;;;14.50;91.50;;;;;;5076302;28;20056;-85
2021/08/24 05:57:43;;;;;;;10.40;5.55;;;14.50;91.50;;;;;;5076527;28;20064;-86
2021/08/24 06:00:10;;;;;;;7.85;5.85;;;14.50;91.50;;;;;;5058058;28;20719;-85
2021/08/24 06:02:36;;;;;;;11.48;5.85;;;14.50;91.50;;;;;;5058211;28;20033;-85
2021/08/24 06:05:03;;;;;;;9.27;5.60;;;14.60;91.50;;;;;;5058496;28;20078;-85
2021/08/24 06:07:29;;;;;;;9.88;5.60;;;14.60;91.40;;;;;;5076225;28;20025;-85
2021/08/24 06:09:55;;;;;;;11.35;5.88;;;14.60;91.70;;;;;;5058438;28;20032;-86
2021/08/24 06:12:21;;;;;;;10.10;6.32;;;14.70;91.40;;;;;;5041611;28;20028;-85
2021/08/24 06:14:47;;;;;;;9.98;5.65;;;14.70;91.40;;;;;;5076152;28;20446;-86
2021/08/24 06:17:13;;;;;;;11.95;5.97;;;14.70;91.40;;;;;;5076024;28;20112;-86
2021/08/24 06:19:38;;;;;;;15.00;6.25;;;14.70;91.40;;;;;;5075710;28;20095;-84
2021/08/24 06:22:04;;;;;;;8.82;5.60;;;14.80;91.40;;;;;;5076013;28;20028;-85
2021/08/24 06:24:31;;;;;;;9.48;5.85;;;14.80;91.40;;;;;;5075926;28;20085;-86
2021/08/24 06:26:57;;;;;;;8.48;5.57;;;14.90;91.30;;;;;;5058073;28;20508;-85
2021/08/24 06:29:24;;;;;;;9.95;5.80;;;15.00;91.30;;;;;;5057379;28;20027;-86
2021/08/24 06:31:52;;;;;;;6.97;5.57;;;15.00;91.30;;;;;;5075818;28;20082;-86
2021/08/24 06:34:19;;;;;;;8.65;5.88;;;15.10;91.20;;;;;;5075524;28;20039;-86
2021/08/24 06:36:45;;;;;;;14.32;6.70;;;15.20;91.10;;;;;;5075108;28;20118;-85
2021/08/24 06:39:11;;;;;;;11.10;6.28;;;15.10;91.00;;;;;;5057626;28;20400;-86
2021/08/24 06:41:38;;;;;;;12.32;7.03;;;15.20;91.10;;;;;;5057888;28;20035;-86
2021/08/24 06:44:08;;;;;;;9.43;5.75;;;15.20;91.00;;;;;;5075673;28;20051;-86
2021/08/24 06:46:34;;;;;;;8.88;5.53;;;15.30;91.00;;;;;;5057352;28;20028;-86
2021/08/24 06:49:00;;;;;;;11.05;6.35;;;15.40;90.90;;;;;;5051512;28;20058;-86
2021/08/24 07:00:51;;;;;;;7.47;5.78;;;15.70;90.70;;;;;;5057092;28;20032;-87
2021/08/24 07:03:17;;;;;;;9.32;5.47;;;15.90;90.50;;;;;;5053935;28;20029;-85
2021/08/24 07:05:45;;;;;;;16.80;6.20;;;16.00;90.30;;;;;;5053974;28;20120;-85
2021/08/24 07:08:12;;;;;;;13.90;6.22;;;16.10;90.20;;;;;;5074807;28;20051;-85
2021/08/24 07:10:38;;;;;;;11.32;6.47;;;16.10;90.10;;;;;;5057212;28;20036;-85
2021/08/24 07:13:05;;;;;;;9.25;5.90;;;16.20;90.00;;;;;;5075071;28;20035;-86
2021/08/24 07:15:32;;;;;;;10.70;6.05;;;16.30;89.70;;;;;;5057231;28;20101;-86
2021/08/24 07:17:59;;;;;;;9.63;6.32;;;16.40;89.40;;;;;;5057032;28;20020;-87
2021/08/24 07:20:25;;;;;;;10.50;6.28;;;16.50;89.10;;;;;;5057080;28;20021;-87
2021/08/24 07:22:52;;;;;;;10.60;6.43;;;16.60;88.70;;;;;;5074927;28;20056;-87
2021/08/24 07:25:23;;;;;;;8.65;5.60;;;16.80;88.50;;;;;;5074952;28;20032;-87
2021/08/24 07:27:48;;;;;;;13.73;6.22;;;16.90;88.80;;;;;;5074681;28;20031;-86
2021/08/24 07:30:15;;;;;;;10.85;6.68;;;17.00;87.60;;;;;;5056642;28;20028;-86
2021/08/24 07:32:41;;;;;;;9.88;5.93;;;17.00;87.20;;;;;;5075144;28;20032;-86
2021/08/24 07:35:08;;;;;;;16.05;6.13;;;17.10;87.30;;;;;;5039920;28;20029;-87
2021/08/24 07:37:33;;;;;;;10.35;5.75;;;17.20;87.20;;;;;;5046061;28;20048;-86
2021/08/24 07:39:59;;;;;;;11.45;6.43;;;17.30;87.00;;;;;;5036306;28;20512;-85
2021/08/24 07:42:25;;;;;;;7.07;5.20;;;17.50;86.50;;;;;;5054375;28;20104;-84
2021/08/24 07:44:51;;;;;;;9.57;5.82;;;17.60;86.10;;;;;;5054390;28;20612;-84
2021/08/24 07:47:17;;;;;;;10.52;5.38;;;17.70;85.40;;;;;;5054434;28;20057;-84
2021/08/24 07:49:46;;;;;;;9.65;5.85;;;17.80;85.10;;;;;;5054368;28;20036;-85
2021/08/24 07:52:12;;;;;;;8.65;5.75;;;17.90;85.10;;;;;;5054167;28;20470;-85
2021/08/24 07:54:38;;;;;;;11.45;5.90;;;18.00;84.30;;;;;;5053063;28;20044;-85
2021/08/24 07:57:05;;;;;;;12.40;5.90;;;18.10;83.60;;;;;;5055678;28;20032;-86
2021/08/24 07:59:31;;;;;;;10.10;5.82;;;18.20;84.00;;;;;;5073786;28;20113;-85
2021/08/24 08:01:57;;;;;;;10.25;6.22;;;18.30;83.90;;;;;;5069199;28;20435;-86
2021/08/24 08:04:23;;;;;;;10.00;5.15;;;18.40;82.90;;;;;;5049387;28;20525;-84
2021/08/24 08:06:49;;;;;;;8.48;5.47;;;18.40;83.00;;;;;;5052501;28;20167;-84
2021/08/24 08:09:16;;;;;;;10.25;5.20;;;18.50;82.30;;;;;;5053282;28;20382;-84
2021/08/24 08:11:42;;;;;;;11.13;5.15;;;18.60;82.10;;;;;;5035817;28;20025;-84
2021/08/24 08:14:08;;;;;;;9.13;4.60;;;18.70;82.10;;;;;;5047888;28;20044;-81
2021/08/24 08:16:38;;;;;;;12.40;4.93;;;18.80;81.70;;;;;;5036204;28;20473;-81
2021/08/24 08:19:03;;;;;;;11.63;5.30;;;19.00;81.50;;;;;;5052544;28;20029;-80
2021/08/24 08:21:31;;;;;;;11.45;4.90;;;19.10;80.60;;;;;;5053757;28;20025;-80
2021/08/24 08:23:58;;;;;;;8.18;5.18;;;19.20;79.80;;;;;;5053672;28;20106;-80
2021/08/24 08:26:23;;;;;;;6.75;4.63;;;19.20;79.00;;;;;;5053463;28;20025;-80
2021/08/24 08:28:50;;;;;;;6.13;4.50;;;19.20;78.80;;;;;;5048063;28;20375;-80
2021/08/24 08:31:17;;;;;;;5.30;3.85;;;19.20;78.40;;;;;;5038005;28;20496;-79
2021/08/24 08:33:43;;;;;;;7.10;4.18;;;19.30;78.90;;;;;;5053402;28;20032;-79
2021/08/24 08:36:09;;;;;;;6.03;4.03;;;19.40;77.80;;;;;;5039582;28;20045;-80
2021/08/24 08:38:35;;;;;;;9.02;4.47;;;19.50;77.30;;;;;;5073537;28;20017;-82
2021/08/24 08:41:32;;;;;;;8.38;4.80;;;19.60;76.80;;;;;;5073442;28;20073;-76
2021/08/24 08:44:07;;;;;;;11.40;4.00;;;19.70;76.10;;;;;;5073430;28;20032;-80
2021/08/24 08:46:56;;;;;;;9.10;3.92;;;19.80;75.90;;;;;;5073156;28;20024;-80
2021/08/24 08:49:22;;;;;;;8.75;3.70;;;19.90;75.60;;;;;;5072962;28;20062;-80
2021/08/24 08:52:10;;;;;;;6.80;3.65;;;19.90;75.20;;;;;;5073117;28;20032;-80
2021/08/24 08:54:40;;;;;;;6.57;3.47;;;20.00;76.00;;;;;;5053315;28;20445;-80
2021/08/24 08:57:11;;;;;;;8.65;3.50;;;20.20;75.10;;;;;;5038033;28;20020;-80
2021/08/24 08:59:51;;;;;;;5.70;2.83;;;20.30;74.00;;;;;;5073221;28;20074;-80
2021/08/24 09:02:34;;;;;;;6.85;3.25;;;20.40;72.80;;;;;;5054886;28;20120;-80
2021/08/24 09:05:04;;;;;;;4.90;3.40;;;20.50;72.10;;;;;;5073017;28;20027;-80
2021/08/24 09:07:49;;;;;;;7.35;3.40;;;20.50;72.20;;;;;;5072758;28;20024;-80
2021/08/24 09:10:19;;;;;;;4.97;2.90;;;20.60;71.70;;;;;;5052982;28;20036;-80
2021/08/24 09:12:52;;;;;;;4.43;2.60;;;20.70;71.30;;;;;;5035007;28;20082;-80
2021/08/24 09:15:34;;;;;;;4.65;2.53;;;20.70;70.80;;;;;;5052932;28;20386;-80
2021/08/24 09:18:01;;;;;;;6.00;2.88;;;20.90;71.10;;;;;;5057308;28;20049;-80
2021/08/24 09:20:32;;;;;;;5.68;3.33;;;21.00;69.30;;;;;;5057082;28;20445;-81
2021/08/24 09:22:58;;;;;;;5.50;3.00;;;21.00;69.20;;;;;;5057021;28;20075;-80
2021/08/24 09:25:45;;;;;;;5.93;2.70;;;21.10;69.70;;;;;;5040012;28;20033;-81
2021/08/24 09:28:23;;;;;;;12.57;2.67;;;21.20;69.00;;;;;;5076916;28;20497;-80
2021/08/24 09:30:49;;;;;;;7.65;2.25;;;21.30;67.00;;;;;;5057128;28;20377;-80
2021/08/24 09:33:16;;;;;;;3.33;2.10;;;21.30;67.00;;;;;;5070294;28;20033;-81
2021/08/24 09:35:46;;;;;;;6.20;2.80;;;21.30;66.30;;;;;;5058670;28;20112;-81
2021/08/24 09:38:14;;;;;;;7.60;2.58;;;21.30;65.70;;;;;;5042525;28;20029;-80
2021/08/24 09:40:53;;;;;;;4.50;2.58;;;21.30;65.80;;;;;;5071216;28;20060;-80
2021/08/24 09:43:18;;;;;;;;;;;21.30;64.70;;;;;;5058576;28;20108;-80
2021/08/24 09:45:44;;;;;;;8.50;2.85;;;21.30;65.90;;;;;;5076406;28;20338;-81
2021/08/24 09:48:10;;;;;;;4.43;2.78;;;21.50;66.10;;;;;;5058200;28;20025;-80
2021/08/24 09:50:38;;;;;;;5.13;2.60;;;21.50;65.30;;;;;;5076721;28;20362;-80
2021/08/24 09:53:08;;;;;;;5.88;2.60;;;21.60;65.40;;;;;;5076510;28;20032;-79
2021/08/24 09:55:46;;;;;;;4.13;2.13;;;21.70;63.50;;;;;;5058596;28;20118;-81
2021/08/24 09:58:27;;;;;;;7.35;2.40;;;21.80;64.20;;;;;;5076217;28;20028;-81
2021/08/24 10:01:02;;;;;;;4.43;2.53;;;21.80;62.70;;;;;;5058159;28;20033;-80
2021/08/24 10:03:35;;;;;;;3.85;2.50;;;21.80;63.00;;;;;;5064670;28;20020;-79
2021/08/24 10:06:06;;;;;;;5.10;2.40;;;21.90;62.60;;;;;;5076312;28;20056;-79
2021/08/24 10:08:36;;;;;;;5.35;2.30;;;22.00;62.70;;;;;;5076246;28;20537;-79
2021/08/24 10:11:07;;;;;;;3.50;2.28;;;22.00;61.50;;;;;;5076344;28;20033;-79
2021/08/24 10:13:34;;;;;;;5.53;2.03;;;22.10;61.10;;;;;;5058345;28;20048;-79
2021/08/24 10:16:11;;;;;;;5.85;2.10;;;22.20;59.70;;;;;;5057243;28;20392;-79
2021/08/24 10:18:39;;;;;;;2.70;1.73;;;22.20;58.70;;;;;;5058041;28;20056;-79
2021/08/24 10:21:33;;;;;;;6.80;2.20;;;22.30;59.20;;;;;;5058126;28;20366;-79
2021/08/24 10:24:01;;;;;;;4.53;2.00;;;22.30;57.80;;;;;;5057197;28;20033;-79
2021/08/24 10:26:34;;;;;;;3.88;2.00;;;22.30;58.90;;;;;;5075466;28;20032;-79
2021/08/24 10:29:04;;;;;;;3.97;1.92;;;22.40;58.90;;;;;;5075759;28;20033;-79
2021/08/24 10:31:42;;;;;;;5.60;2.30;;;22.60;58.80;;;;;;5057603;28;20036;-79
2021/08/24 10:34:34;;;;;;;3.60;2.00;;;22.70;58.80;;;;;;5074031;28;20115;-78
2021/08/24 10:37:31;;;;;;;3.55;2.25;;;22.70;57.80;;;;;;5025040;28;20076;-79
2021/08/24 10:40:08;;;;;;;3.15;2.10;;;22.80;57.10;;;;;;5054859;28;20029;-79
2021/08/24 10:42:35;;;;;;;3.15;1.83;;;22.80;56.70;;;;;;5053302;28;20029;-79
2021/08/24 10:45:17;;;;;;;2.58;1.98;;;22.80;56.40;;;;;;5055035;28;20025;-79
2021/08/24 10:47:49;;;;;;;6.30;2.17;;;22.80;56.80;;;;;;5036661;28;20116;-79
2021/08/24 10:50:24;;;;;;;4.68;1.90;;;22.90;57.20;;;;;;5054193;28;20025;-80
2021/08/24 10:53:17;;;;;;;6.07;2.10;;;23.10;57.20;;;;;;5053237;28;20021;-81
2021/08/24 10:55:52;;;;;;;3.13;2.00;;;23.20;57.50;;;;;;5052542;28;20025;-80
2021/08/24 10:58:27;;;;;;;4.15;2.33;;;23.30;56.40;;;;;;5036681;28;20382;-80
2021/08/24 11:01:01;;;;;;;5.30;2.67;;;23.30;56.90;;;;;;5054117;28;20037;-80
2021/08/24 11:03:45;;;;;;;3.60;1.90;;;23.20;58.30;;;;;;5052864;28;20018;-80
2021/08/24 11:06:28;;;;;;;3.55;2.15;;;23.20;56.40;;;;;;5034154;28;20039;-80
2021/08/24 11:09:11;;;;;;;4.03;2.22;;;22.90;56.00;;;;;;5035488;28;20040;-79
2021/08/24 11:11:58;;;;;;;6.72;2.00;;;22.60;55.90;;;;;;5054841;28;20025;-79
2021/08/24 11:14:27;;;;;;;4.30;2.38;;;22.30;57.00;;;;;;5053662;28;20033;-81
2021/08/24 11:17:16;;;;;;;3.05;1.90;;;22.10;56.80;;;;;;5053303;28;20025;-81
2021/08/24 11:19:53;;;;;;;6.30;2.30;;;22.10;56.20;;;;;;5065528;28;20038;-81
2021/08/24 11:22:30;;;;;;;2.55;1.70;;;22.10;57.50;;;;;;5054624;28;20025;-82
2021/08/24 11:24:59;;;;;;;6.10;2.08;;;22.20;56.30;;;;;;5055052;28;20488;-81
2021/08/24 11:27:41;;;;;;;3.67;1.85;;;22.40;56.60;;;;;;5054944;28;20040;-81
2021/08/24 11:30:40;;;;;;;7.88;2.20;;;22.50;55.30;;;;;;5054651;28;20025;-81
2021/08/24 11:33:21;;;;;;;2.90;2.05;;;22.50;54.10;;;;;;5054810;28;20033;-82
2021/08/24 11:36:21;;;;;;;3.33;1.98;;;22.50;53.90;;;;;;5039312;28;20450;-82
2021/08/24 11:38:58;;;;;;;5.40;2.10;;;22.50;54.20;;;;;;5022213;28;20037;-82
2021/08/24 11:41:26;;;;;;;2.75;1.90;;;22.60;53.60;;;;;;5053393;28;20104;-81
2021/08/24 11:44:36;;;;;;;4.03;2.10;;;22.80;54.00;;;;;;5052687;28;20029;-81
2021/08/24 11:47:14;;;;;;;3.58;2.17;;;23.00;52.90;;;;;;5031106;28;20033;-81
2021/08/24 11:49:59;;;;;;;5.00;2.20;;;23.10;52.20;;;;;;5054563;28;20025;-82
2021/08/24 11:52:42;;;;;;;3.78;2.28;;;23.10;51.70;;;;;;5053244;28;20433;-82
2021/08/24 11:55:32;;;;;;;4.78;2.00;;;23.10;51.60;;;;;;5053081;28;20482;-81
2021/08/24 11:58:15;;;;;;;3.20;2.08;;;23.20;53.30;;;;;;5052955;28;20064;-81
2021/08/24 12:00:48;;;;;;;3.67;2.00;;;23.40;52.80;;;;;;5054236;28;20117;-81
2021/08/24 12:03:18;;;;;;;2.63;1.98;;;23.50;51.40;;;;;;5054117;28;20039;-82
2021/08/24 12:05:51;;;;;;;5.03;2.28;;;23.60;50.30;;;;;;5053681;28;20033;-81
2021/08/24 12:08:25;;;;;;;7.07;2.35;;;23.70;51.10;;;;;;5053625;28;20021;-82
2021/08/24 12:10:51;;;;;;;3.13;1.90;;;23.70;50.80;;;;;;5054049;28;20095;-82
2021/08/24 12:13:31;;;;;;;5.72;2.13;;;23.80;51.80;;;;;;5053894;28;20470;-81
2021/08/24 12:16:22;;;;;;;2.45;2.00;;;23.70;51.80;;;;;;5053510;28;20024;-81
2021/08/24 12:18:49;;;;;;;3.63;1.95;;;23.60;51.10;;;;;;5052034;28;20048;-81
2021/08/24 12:21:32;;;;;;;4.20;2.30;;;23.70;52.20;;;;;;5052657;28;20044;-82
2021/08/24 12:24:24;;;;;;;5.47;2.60;;;23.60;50.70;;;;;;5053605;28;20017;-81
2021/08/24 12:26:51;;;;;;;4.85;2.40;;;23.50;51.00;;;;;;5053866;28;20043;-81
2021/08/24 12:29:32;;;;;;;6.65;2.30;;;23.30;49.80;;;;;;5053765;28;20025;-82
2021/08/24 12:32:00;;;;;;;4.07;1.73;;;23.10;52.60;;;;;;5053672;28;20025;-81
2021/08/24 12:34:35;;;;;;;4.40;2.40;;;23.10;51.90;;;;;;5053670;28;20021;-82
2021/08/24 12:37:29;;;;;;;5.18;2.28;;;23.20;51.00;;;;;;5052221;28;20049;-82
2021/08/24 12:39:57;;;;;;;4.57;2.35;;;23.30;49.90;;;;;;5053547;28;20096;-82
2021/08/24 12:42:27;;;;;;;4.07;2.23;;;23.40;49.50;;;;;;5053607;28;20501;-82
2021/08/24 12:44:58;;;;;;;7.88;2.33;;;23.50;50.50;;;;;;5053700;28;20100;-82
2021/08/24 12:47:30;;;;;;;2.95;2.25;;;23.60;50.70;;;;;;5053589;28;20114;-82
2021/08/24 12:50:19;;;;;;;6.13;2.67;;;23.70;49.40;;;;;;5053463;28;20102;-82
2021/08/24 12:52:47;;;;;;;3.10;2.00;;;23.70;49.60;;;;;;5053204;28;20492;-82
2021/08/24 12:55:31;;;;;;;5.75;2.50;;;23.70;50.40;;;;;;5053374;28;20040;-83
2021/08/24 12:58:43;;;;;;;3.97;2.45;;;23.80;49.40;;;;;;5053366;28;20048;-84
2021/08/24 13:01:11;;;;;;;4.32;2.17;;;23.90;49.20;;;;;;5044135;28;20123;-82
2021/08/24 13:03:39;;;;;;;3.97;2.30;;;24.00;50.00;;;;;;5053314;28;20460;-83
2021/08/24 13:06:17;;;;;;;6.47;2.13;;;24.00;49.40;;;;;;5052041;28;20040;-82
2021/08/24 13:08:45;;;;;;;6.43;2.50;;;24.00;49.50;;;;;;5053296;28;20071;-82
2021/08/24 13:11:30;;;;;;;3.92;2.28;;;24.00;49.30;;;;;;5053362;28;20123;-82
2021/08/24 13:14:03;;;;;;;5.70;2.60;;;24.10;49.10;;;;;;5033299;28;20021;-82
2021/08/24 13:16:34;;;;;;;2.78;2.15;;;24.20;49.00;;;;;;5033306;28;20025;-82
2021/08/24 13:19:03;;;;;;;4.15;2.30;;;24.20;49.10;;;;;;5032023;28;20053;-82